Terminal Aerodrome Forecast
Issued by NWS Sterling, VA

Current Version | Previous Version | Text Only | Print | Product List | Glossary Off
Versions: 1 2 3 4 5 6 7 8 9 10 11 12 13 14 15 16 17 18 19 20 21 22 23 24 25 26 27 28

000
FTUS41 KLWX 270500
TAFIAD
TAF
KIAD 270536Z 2706/2812 00000KT P6SM SCT035
     FM270800 00000KT 3SM BR BKN035
     FM271700 32004KT P6SM OVC030
     FM272000 32005KT P6SM BKN035
     FM280300 31007KT P6SM SCT050=

USA.gov is the U.S. government's official web portal to all federal, state and local government web resources and services.